Time;durP1;ratioP1;P1;durP2;ratioP2;P2;SDS_P1;SDS_P2;PMS_P1;PMS_P2;Temp;Humidity;BMP_temperature;BMP_pressure;BME280_temperature;BME280_humidity;BME280_pressure;Samples;Min_cycle;Max_cycle;Signal;HPM_P1;HPM_P2
2020/01/15 00:01:56;;;;;;;9;6.4;;;;;;;5.19;62.24023;961.8435;;;;
2020/01/15 00:04:21;;;;;;;7.7;5.9;;;;;;;5.24;61.75781;961.8367;;;;
2020/01/15 00:06:47;;;;;;;9.2;5.9;;;;;;;5.26;61.5332;961.8786;;;;
2020/01/15 00:09:12;;;;;;;7.6;5.8;;;;;;;5.13;62.59473;961.8295;;;;
2020/01/15 00:11:38;;;;;;;8.5;5.8;;;;;;;5.05;62.63965;961.7541;;;;
2020/01/15 00:14:03;;;;;;;7.2;5.8;;;;;;;5.14;63.19824;961.7999;;;;
2020/01/15 00:16:29;;;;;;;6.6;5.3;;;;;;;5.19;62.52441;961.7272;;;;
2020/01/15 00:18:54;;;;;;;8.1;5.7;;;;;;;5.12;62.81934;961.7305;;;;
2020/01/15 00:21:20;;;;;;;7.9;5.8;;;;;;;5.15;62.47363;961.7911;;;;
2020/01/15 00:23:46;;;;;;;7.5;5.9;;;;;;;5.16;62.51953;961.7371;;;;
2020/01/15 00:26:28;;;;;;;6.6;5.5;;;;;;;5.1;62.95508;961.7484;;;;
2020/01/15 00:28:50;;;;;;;10.1;6.1;;;;;;;5.02;63.18164;961.7238;;;;
2020/01/15 00:31:02;;;;;;;7.8;5.7;;;;;;;5.06;63.3457;961.6967;;;;
2020/01/15 00:33:26;;;;;;;7.9;6.3;;;;;;;5.08;63.94043;961.7191;;;;
2020/01/15 00:35:51;;;;;;;11;6.7;;;;;;;4.94;63.41797;961.7744;;;;
2020/01/15 00:38:17;;;;;;;10;7;;;;;;;4.65;64.78418;961.7608;;;;
2020/01/15 00:40:42;;;;;;;8.8;6.8;;;;;;;4.77;64.84766;961.7474;;;;
2020/01/15 00:43:07;;;;;;;9.5;6.9;;;;;;;4.75;64.34375;961.752;;;;
2020/01/15 00:45:32;;;;;;;9.1;6.7;;;;;;;4.67;64.76465;961.7551;;;;
2020/01/15 00:47:57;;;;;;;8.7;6.7;;;;;;;4.63;63.81543;961.8306;;;;
2020/01/15 00:50:23;;;;;;;11.3;6.8;;;;;;;4.62;63.97266;961.8522;;;;
2020/01/15 00:52:48;;;;;;;10.2;7;;;;;;;4.41;64.80469;961.858;;;;
2020/01/15 00:55:13;;;;;;;8.7;6.5;;;;;;;4.53;64.92285;961.8583;;;;
2020/01/15 00:57:38;;;;;;;10;6.7;;;;;;;4.45;64.6748;961.8823;;;;
2020/01/15 01:00:03;;;;;;;8.4;6.3;;;;;;;4.58;63.24023;961.9077;;;;
2020/01/15 01:02:29;;;;;;;9.3;6.2;;;;;;;4.18;65.16602;961.9617;;;;
2020/01/15 01:04:54;;;;;;;10.5;6.6;;;;;;;4.12;64.73828;961.971;;;;
2020/01/15 01:07:25;;;;;;;8.9;6;;;;;;;4.31;63.42676;961.9852;;;;
2020/01/15 01:09:46;;;;;;;8.4;5.8;;;;;;;4.25;64.36035;961.9634;;;;
2020/01/15 01:12:31;;;;;;;7.7;5.8;;;;;;;4.24;64.49512;961.9702;;;;
2020/01/15 01:17:04;;;;;;;7.7;5.5;;;;;;;4.31;64.78809;961.9567;;;;
2020/01/15 01:19:25;;;;;;;7.5;5.5;;;;;;;4.32;64.34668;961.9109;;;;
2020/01/15 01:21:50;;;;;;;7.8;5.7;;;;;;;4.39;66.08203;961.878;;;;
2020/01/15 01:24:15;;;;;;;9.6;6;;;;;;;4.24;65.02637;961.9224;;;;
2020/01/15 01:26:40;;;;;;;8.8;5.7;;;;;;;4.07;65.60156;961.9142;;;;
2020/01/15 01:29:05;;;;;;;8.1;5.6;;;;;;;4.05;66.3125;961.9224;;;;
2020/01/15 01:31:45;;;;;;;7.5;5.6;;;;;;;4.15;64.70801;961.9344;;;;
2020/01/15 01:33:55;;;;;;;7.3;5.5;;;;;;;4.11;65.03027;961.9124;;;;
2020/01/15 01:36:21;;;;;;;8.8;5.8;;;;;;;4.13;65.16895;961.8747;;;;
2020/01/15 01:38:46;;;;;;;7.5;5.2;;;;;;;4.18;64.71191;961.8977;;;;
2020/01/15 01:41:11;;;;;;;6.2;4.8;;;;;;;4.27;64.59961;961.8624;;;;
2020/01/15 01:43:36;;;;;;;6.9;5.1;;;;;;;4.2;65.12305;961.8022;;;;
2020/01/15 01:46:01;;;;;;;6;4.6;;;;;;;4.22;65.26172;961.7539;;;;
2020/01/15 01:48:26;;;;;;;6.3;5;;;;;;;4.24;65.10645;961.824;;;;
2020/01/15 01:50:51;;;;;;;6.8;4.8;;;;;;;4.33;63.66895;961.8039;;;;
2020/01/15 01:53:16;;;;;;;7.2;5.1;;;;;;;4.39;62.78125;961.8058;;;;
2020/01/15 01:55:41;;;;;;;8.5;4.9;;;;;;;4.35;63.42383;961.8416;;;;
2020/01/15 01:58:06;;;;;;;6.6;5.4;;;;;;;4.33;64.12305;961.7583;;;;
2020/01/15 02:00:32;;;;;;;6.4;5.1;;;;;;;4.24;64.47266;961.8194;;;;
2020/01/15 02:02:57;;;;;;;8.2;5.8;;;;;;;4.31;64.44727;961.8308;;;;
2020/01/15 02:05:22;;;;;;;7.6;5.8;;;;;;;4.36;64.4668;961.9022;;;;
2020/01/15 02:07:47;;;;;;;9.2;6.7;;;;;;;4.1;65.37988;961.8738;;;;
2020/01/15 02:10:16;;;;;;;8.6;5.9;;;;;;;3.97;65.61035;961.8502;;;;
2020/01/15 02:12:41;;;;;;;8.2;6;;;;;;;4.08;66.60156;961.8853;;;;
2020/01/15 02:15:07;;;;;;;8.4;6.3;;;;;;;4.12;64.79297;961.7595;;;;
2020/01/15 02:17:32;;;;;;;8.2;6;;;;;;;4.07;64.53711;961.8511;;;;
2020/01/15 02:19:57;;;;;;;7.9;5.7;;;;;;;4;65.64746;961.8627;;;;
2020/01/15 02:22:22;;;;;;;7.9;6;;;;;;;4.09;65.50488;961.9244;;;;
2020/01/15 02:24:47;;;;;;;6.8;5.4;;;;;;;4.04;65.24707;961.9165;;;;
2020/01/15 02:27:12;;;;;;;7;5.6;;;;;;;4.02;65.83301;961.9048;;;;
2020/01/15 02:29:37;;;;;;;8;5.8;;;;;;;4.06;65.96289;961.8922;;;;
2020/01/15 02:32:02;;;;;;;7.5;5.3;;;;;;;3.85;66.40723;961.8491;;;;
2020/01/15 02:34:28;;;;;;;8;5.6;;;;;;;3.86;65.97754;961.8477;;;;
2020/01/15 02:36:53;;;;;;;8.4;5.4;;;;;;;3.84;65.99707;961.8497;;;;
2020/01/15 02:39:19;;;;;;;7.6;5.2;;;;;;;3.94;66.30762;961.8517;;;;
2020/01/15 02:41:44;;;;;;;7.4;5.5;;;;;;;3.77;66.99414;961.8812;;;;
2020/01/15 02:44:10;;;;;;;7.6;5.5;;;;;;;3.88;67.28516;961.7952;;;;
2020/01/15 02:46:35;;;;;;;7.5;5.4;;;;;;;3.79;67.05371;961.8375;;;;
2020/01/15 02:49:00;;;;;;;8.6;5.3;;;;;;;3.76;66.81152;961.7634;;;;
2020/01/15 02:51:26;;;;;;;8.5;5.2;;;;;;;3.77;67.17578;961.7625;;;;
2020/01/15 02:53:51;;;;;;;7.5;5.7;;;;;;;3.82;67.1377;961.7759;;;;
2020/01/15 02:56:16;;;;;;;6.8;5.2;;;;;;;3.76;67.37793;961.8358;;;;
2020/01/15 02:58:42;;;;;;;8.5;5.2;;;;;;;3.6;68.76953;961.8702;;;;
2020/01/15 03:01:07;;;;;;;8.3;5.7;;;;;;;3.58;68.53906;961.8481;;;;
2020/01/15 03:03:32;;;;;;;7.8;5.8;;;;;;;3.37;68.96875;961.8563;;;;
2020/01/15 03:05:58;;;;;;;8.2;5.8;;;;;;;3.27;69.62109;961.8434;;;;
2020/01/15 03:10:48;;;;;;;8.2;5.3;;;;;;;3.49;68.28711;961.9323;;;;
2020/01/15 03:13:14;;;;;;;8.1;5.5;;;;;;;3.49;68.1377;961.837;;;;
2020/01/15 03:15:39;;;;;;;8;5.5;;;;;;;3.58;67.96191;961.8696;;;;
2020/01/15 03:18:05;;;;;;;7.1;5.1;;;;;;;3.57;67.56348;961.8122;;;;
2020/01/15 03:20:30;;;;;;;8.5;5.3;;;;;;;3.58;67.78027;961.8326;;;;
2020/01/15 03:22:55;;;;;;;8;5.3;;;;;;;3.41;69.12109;961.8322;;;;
2020/01/15 03:25:21;;;;;;;8.8;5.2;;;;;;;3.41;68.26074;961.8644;;;;
2020/01/15 03:27:46;;;;;;;8;5.5;;;;;;;3.46;68.30371;961.8783;;;;
2020/01/15 03:30:11;;;;;;;7.5;5.1;;;;;;;3.52;68.2793;961.8411;;;;
2020/01/15 03:32:37;;;;;;;8;5.4;;;;;;;3.5;67.95996;961.7681;;;;
2020/01/15 03:35:02;;;;;;;8.3;5.2;;;;;;;3.46;68.03223;961.7751;;;;
2020/01/15 03:37:27;;;;;;;9;5.5;;;;;;;3.41;68.64746;961.7731;;;;
2020/01/15 03:39:52;;;;;;;8.2;5.4;;;;;;;3.46;68.18066;961.7255;;;;
2020/01/15 03:42:17;;;;;;;7.1;4.8;;;;;;;3.46;68.47363;961.6931;;;;
2020/01/15 03:44:43;;;;;;;6.4;4.9;;;;;;;3.38;68.68652;961.6583;;;;
2020/01/15 03:47:08;;;;;;;7.7;5.3;;;;;;;3.38;68.66602;961.6275;;;;
2020/01/15 03:49:33;;;;;;;7.8;5.3;;;;;;;3.38;68.95996;961.6234;;;;
2020/01/15 03:51:59;;;;;;;7.9;5.4;;;;;;;3.41;68.66992;961.6442;;;;
2020/01/15 03:54:24;;;;;;;6.9;5;;;;;;;3.33;69.44727;961.5658;;;;
2020/01/15 03:56:50;;;;;;;6.6;4.9;;;;;;;3.07;70.56055;961.5905;;;;
2020/01/15 03:59:15;;;;;;;7.6;5.4;;;;;;;3.14;69.80176;961.6102;;;;
2020/01/15 18:58:09;;;;;;;7.8;3.7;;;;;;;7.49;62.98633;966.2056;;;;
2020/01/15 19:00:35;;;;;;;6.9;4.1;;;;;;;7.44;63.28809;966.296;;;;
2020/01/15 19:03:00;;;;;;;6.5;4;;;;;;;7.38;63.38184;966.3438;;;;
2020/01/15 19:05:25;;;;;;;6.8;4.2;;;;;;;7.4;63.35156;966.3908;;;;
2020/01/15 19:07:50;;;;;;;8.6;4.5;;;;;;;7.43;63.42383;966.3766;;;;
2020/01/15 19:10:15;;;;;;;8.8;4;;;;;;;7.42;63.49121;966.361;;;;
2020/01/15 19:12:40;;;;;;;6.8;3.9;;;;;;;7.41;63.63672;966.4753;;;;
2020/01/15 19:15:06;;;;;;;6.5;3.9;;;;;;;7.4;63.64844;966.5254;;;;
2020/01/15 19:17:30;;;;;;;8.4;4.4;;;;;;;7.35;63.89063;966.5424;;;;
2020/01/15 19:19:55;;;;;;;8.1;4.4;;;;;;;7.35;63.92578;966.5742;;;;
2020/01/15 19:22:20;;;;;;;7.1;3.9;;;;;;;7.35;63.76563;966.6423;;;;
2020/01/15 19:24:45;;;;;;;7.2;4.1;;;;;;;7.41;63.70508;966.6602;;;;
2020/01/15 19:27:10;;;;;;;6.5;3.7;;;;;;;7.4;63.76074;966.6379;;;;
2020/01/15 19:29:35;;;;;;;6.2;3.9;;;;;;;7.4;63.51074;966.6707;;;;
2020/01/15 19:32:00;;;;;;;6.1;3.8;;;;;;;7.43;63.57227;966.7033;;;;
2020/01/15 19:34:26;;;;;;;5.9;3.7;;;;;;;7.41;63.88867;966.6627;;;;
2020/01/15 19:36:51;;;;;;;6.7;3.7;;;;;;;7.36;63.83594;966.6713;;;;
2020/01/15 19:39:16;;;;;;;5.8;3.6;;;;;;;7.37;63.79297;966.6904;;;;
2020/01/15 19:41:41;;;;;;;5.9;4;;;;;;;7.35;63.8916;966.7249;;;;
2020/01/15 19:44:06;;;;;;;5.8;3.7;;;;;;;7.44;63.70898;966.6964;;;;
2020/01/15 19:46:31;;;;;;;8;4;;;;;;;7.3;63.99902;966.7241;;;;
2020/01/15 19:48:56;;;;;;;7.4;3.9;;;;;;;7.24;64.34375;966.7838;;;;
2020/01/15 19:51:21;;;;;;;6.1;3.7;;;;;;;7.25;64.42383;966.7759;;;;
2020/01/15 19:53:47;;;;;;;6.5;4;;;;;;;7.28;64.46387;966.7692;;;;
2020/01/15 19:56:12;;;;;;;7.6;4.3;;;;;;;7.23;64.47852;966.7766;;;;
2020/01/15 19:58:38;;;;;;;7.6;4;;;;;;;7.12;64.86133;966.7925;;;;
2020/01/15 20:01:05;;;;;;;7.5;4.4;;;;;;;7.09;64.88086;966.8091;;;;
2020/01/15 20:03:28;;;;;;;8.3;4.4;;;;;;;7.07;65.26563;966.8273;;;;
2020/01/15 20:05:53;;;;;;;6.4;4.6;;;;;;;7.08;65.17578;966.8699;;;;
2020/01/15 20:08:18;;;;;;;8.4;4.8;;;;;;;7.01;65.2334;966.8586;;;;
2020/01/15 20:10:44;;;;;;;6.9;4.7;;;;;;;7.06;65.71973;966.8467;;;;
2020/01/15 20:13:08;;;;;;;7.4;5;;;;;;;7.09;65.71387;966.8821;;;;
2020/01/15 20:15:33;;;;;;;8;5;;;;;;;7.02;65.89648;966.9431;;;;
2020/01/15 20:17:58;;;;;;;9.6;5.4;;;;;;;6.75;66.50586;967.0168;;;;
2020/01/15 20:20:24;;;;;;;7.6;5.3;;;;;;;6.75;66.54004;967.0112;;;;
2020/01/15 20:22:49;;;;;;;8.5;5.4;;;;;;;6.73;66.69727;967.0325;;;;
2020/01/15 20:25:14;;;;;;;8.2;5.3;;;;;;;6.76;67.18066;967.0475;;;;
2020/01/15 20:27:39;;;;;;;9.1;5.6;;;;;;;6.68;67.11035;967.0374;;;;
2020/01/15 20:30:05;;;;;;;7.3;5.2;;;;;;;6.54;67.36328;967.0106;;;;
2020/01/15 20:32:29;;;;;;;7.3;4.9;;;;;;;6.44;67.82617;967.035;;;;
2020/01/15 20:34:54;;;;;;;10.4;5.4;;;;;;;6.37;68.04297;967.0078;;;;
2020/01/15 20:37:20;;;;;;;7.3;4.9;;;;;;;6.44;67.86035;967.0424;;;;
2020/01/15 20:39:46;;;;;;;7.1;4.6;;;;;;;6.52;67.56445;967.0066;;;;
2020/01/15 20:42:10;;;;;;;6.8;4.9;;;;;;;6.61;67.09961;967.0767;;;;
2020/01/15 20:44:35;;;;;;;8.1;5;;;;;;;6.58;67.28906;967.1002;;;;
2020/01/15 20:47:01;;;;;;;6.6;4.8;;;;;;;6.64;67.46875;967.1339;;;;
2020/01/15 20:49:25;;;;;;;7.2;4.5;;;;;;;6.66;67.2666;967.0612;;;;
2020/01/15 20:51:50;;;;;;;8.1;4.8;;;;;;;6.49;67.86816;967.1275;;;;
2020/01/15 20:54:15;;;;;;;6.7;4.5;;;;;;;6.61;67.54297;967.1423;;;;
2020/01/15 20:56:40;;;;;;;7.7;4.8;;;;;;;6.65;67.49414;967.2051;;;;
2020/01/15 20:59:06;;;;;;;6.9;4.8;;;;;;;6.66;67.54102;967.2275;;;;
2020/01/15 21:01:31;;;;;;;7.6;5.1;;;;;;;6.6;67.66797;967.2547;;;;
2020/01/15 21:03:56;;;;;;;7.5;5.1;;;;;;;6.47;67.77344;967.2673;;;;
2020/01/15 21:06:21;;;;;;;6.6;4.7;;;;;;;6.46;68.22852;967.3284;;;;
2020/01/15 21:08:46;;;;;;;9.4;5.8;;;;;;;6.48;67.92383;967.2888;;;;
2020/01/15 21:11:11;;;;;;;6.6;5.2;;;;;;;6.41;68.5166;967.3089;;;;
2020/01/15 21:13:36;;;;;;;7.2;5.3;;;;;;;6.35;68.33496;967.3586;;;;
2020/01/15 21:16:01;;;;;;;7.4;5.3;;;;;;;6.39;68.02344;967.3878;;;;
2020/01/15 21:18:26;;;;;;;7;4.6;;;;;;;6.46;68.10156;967.4161;;;;
2020/01/15 21:20:51;;;;;;;9.9;5;;;;;;;6.34;68.6416;967.445;;;;
2020/01/15 21:23:20;;;;;;;6.6;4.7;;;;;;;6.28;68.26855;967.4906;;;;
2020/01/15 21:25:42;;;;;;;8.7;4.8;;;;;;;6.21;68.36914;967.508;;;;
2020/01/15 21:28:07;;;;;;;7.6;4.8;;;;;;;6.27;68.22168;967.5475;;;;
2020/01/15 21:30:34;;;;;;;6.7;4.2;;;;;;;6.36;67.64258;967.5323;;;;
2020/01/15 21:32:57;;;;;;;7.2;4.5;;;;;;;6.5;67.0127;967.4879;;;;
2020/01/15 21:35:22;;;;;;;8;4.5;;;;;;;6.61;66.23438;967.4367;;;;
2020/01/15 21:37:47;;;;;;;8;4.7;;;;;;;6.6;66.26563;967.5032;;;;
2020/01/15 21:40:12;;;;;;;8.1;4.2;;;;;;;6.63;65.96191;967.4869;;;;
2020/01/15 21:42:37;;;;;;;7.7;4.2;;;;;;;6.65;65.8291;967.5136;;;;
2020/01/15 21:45:02;;;;;;;6.5;4.2;;;;;;;6.77;65.23145;967.6075;;;;
2020/01/15 21:47:28;;;;;;;5.9;3.8;;;;;;;6.81;65.03125;967.6102;;;;
2020/01/15 21:49:53;;;;;;;6.3;4;;;;;;;6.79;65.0166;967.5338;;;;
2020/01/15 21:52:18;;;;;;;5.7;4;;;;;;;6.82;64.97559;967.6275;;;;
2020/01/15 21:54:43;;;;;;;6.3;3.9;;;;;;;6.77;64.98047;967.666;;;;
2020/01/15 21:57:08;;;;;;;5.3;3.7;;;;;;;6.78;64.94727;967.676;;;;
2020/01/15 21:59:33;;;;;;;5.5;3.7;;;;;;;6.77;65.09375;967.7584;;;;
2020/01/15 22:01:58;;;;;;;6.8;4.1;;;;;;;6.78;65.03809;967.7949;;;;
2020/01/15 22:04:24;;;;;;;6.3;4;;;;;;;6.77;64.98047;967.7792;;;;
2020/01/15 22:06:49;;;;;;;5.8;3.6;;;;;;;6.78;65.17578;967.7204;;;;
2020/01/15 22:09:14;;;;;;;6.9;4.1;;;;;;;6.75;65.34277;967.8027;;;;
2020/01/15 22:11:39;;;;;;;5.9;3.9;;;;;;;6.81;65.14648;967.8412;;;;
2020/01/15 22:14:04;;;;;;;5.9;3.7;;;;;;;6.83;65.22949;967.8591;;;;
2020/01/15 22:16:29;;;;;;;5.1;3.7;;;;;;;6.81;65.23633;967.8328;;;;
2020/01/15 22:18:54;;;;;;;6;3.7;;;;;;;6.83;65.28613;967.8834;;;;
2020/01/15 22:21:19;;;;;;;7.6;4;;;;;;;6.79;65.40527;967.9545;;;;
2020/01/15 22:23:45;;;;;;;6.8;4.1;;;;;;;6.83;65.46875;967.9911;;;;
2020/01/15 22:26:10;;;;;;;6.2;3.9;;;;;;;6.79;66.10059;968.0647;;;;
2020/01/15 22:28:36;;;;;;;6;4.2;;;;;;;6.72;65.75879;968.1186;;;;
2020/01/15 22:31:06;;;;;;;5.8;4.4;;;;;;;6.48;66.69043;968.1426;;;;
2020/01/15 22:33:27;;;;;;;5.6;4.1;;;;;;;6.58;66.61621;968.1908;;;;
2020/01/15 22:35:51;;;;;;;6.4;4.7;;;;;;;6.42;66.8418;968.206;;;;
2020/01/15 22:38:16;;;;;;;7.1;4.1;;;;;;;6.49;66.73926;968.2028;;;;
2020/01/15 22:40:41;;;;;;;6.5;4.3;;;;;;;6.46;67.21387;968.2078;;;;
2020/01/15 22:43:07;;;;;;;6;4.1;;;;;;;6.52;66.8457;968.2328;;;;
2020/01/15 22:45:32;;;;;;;5.7;4.1;;;;;;;6.35;67.18457;968.3251;;;;
2020/01/15 22:47:57;;;;;;;5.9;4.1;;;;;;;6.37;67.74512;968.3339;;;;
2020/01/15 22:50:22;;;;;;;6.1;4.1;;;;;;;6.39;67.64746;968.3918;;;;
2020/01/15 22:52:47;;;;;;;6.7;3.9;;;;;;;6.34;67.95801;968.4369;;;;
2020/01/15 22:55:12;;;;;;;5.2;3.5;;;;;;;6.45;67.71289;968.4448;;;;
2020/01/15 22:57:38;;;;;;;5.6;3.8;;;;;;;6.45;67.46191;968.4952;;;;
2020/01/15 23:00:03;;;;;;;5.2;3.8;;;;;;;6.4;67.61426;968.5042;;;;
2020/01/15 23:02:28;;;;;;;5.3;4;;;;;;;6.16;68.77246;968.558;;;;
2020/01/15 23:04:55;;;;;;;6.5;4;;;;;;;6.1;69.15137;968.558;;;;
2020/01/15 23:07:18;;;;;;;6.5;4.2;;;;;;;6.02;69.38672;968.5966;;;;
2020/01/15 23:09:46;;;;;;;5.3;4.1;;;;;;;6.08;69.21484;968.6189;;;;
2020/01/15 23:12:09;;;;;;;5.2;3.9;;;;;;;6.12;69.03809;968.6526;;;;
2020/01/15 23:14:35;;;;;;;5.1;3.7;;;;;;;6.09;69.01172;968.6917;;;;
2020/01/15 23:17:00;;;;;;;4.7;3.5;;;;;;;6.1;69.04688;968.7136;;;;
2020/01/15 23:19:26;;;;;;;5.6;3.8;;;;;;;6.07;69.75977;968.7377;;;;
2020/01/15 23:21:52;;;;;;;5.8;3.8;;;;;;;6.09;69.22754;968.7215;;;;
2020/01/15 23:24:17;;;;;;;5.1;3.7;;;;;;;5.94;69.96777;968.765;;;;
2020/01/15 23:26:46;;;;;;;6.1;3.7;;;;;;;5.92;70.46387;968.7794;;;;
2020/01/15 23:29:06;;;;;;;4.6;3.4;;;;;;;5.96;70.44727;968.7852;;;;
2020/01/15 23:31:36;;;;;;;5.8;3.4;;;;;;;6.03;70.5957;968.8148;;;;
2020/01/15 23:33:57;;;;;;;5.8;3.7;;;;;;;5.97;71.23535;968.7857;;;;
2020/01/15 23:36:22;;;;;;;5.8;3.6;;;;;;;6.06;70.875;968.8261;;;;
2020/01/15 23:38:47;;;;;;;4.6;3.5;;;;;;;6.13;70.2832;968.8384;;;;
2020/01/15 23:41:12;;;;;;;5.5;3.8;;;;;;;6.18;70.34766;968.87;;;;
2020/01/15 23:43:37;;;;;;;4.8;3.4;;;;;;;6.23;70.26465;968.8889;;;;
2020/01/15 23:46:02;;;;;;;4.3;3.3;;;;;;;6.31;70.12988;968.9283;;;;
2020/01/15 23:48:27;;;;;;;5.2;3.4;;;;;;;6.41;69.91797;968.8519;;;;
2020/01/15 23:50:53;;;;;;;6.4;4;;;;;;;6.36;70.12598;968.8816;;;;
2020/01/15 23:53:19;;;;;;;5.9;3.6;;;;;;;6.38;70.19922;968.8812;;;;
2020/01/15 23:55:44;;;;;;;4.9;3.3;;;;;;;6.42;70.6377;968.8643;;;;
2020/01/15 23:58:09;;;;;;;5.2;3.4;;;;;;;6.57;69.97852;968.9091;;;;
